createdAt,value
2023-09-13T06:47:04.513Z,20.40
2023-09-13T06:52:19.318Z,20.50
2023-09-13T07:26:15.319Z,20.30
2023-09-13T07:31:18.808Z,20.60
2023-09-13T07:36:24.318Z,21.60
2023-09-13T07:41:29.457Z,22.60
2023-09-13T07:46:34.944Z,23.00
2023-09-13T07:51:39.248Z,22.80
2023-09-13T07:56:45.108Z,22.70
2023-09-13T08:01:49.439Z,22.60
2023-09-13T08:06:52.764Z,21.70
2023-09-13T08:11:57.496Z,21.40
2023-09-13T08:17:01.591Z,21.50
2023-09-13T08:22:05.594Z,21.80
2023-09-13T08:28:10.250Z,22.00
2023-09-13T08:33:15.459Z,22.10
2023-09-13T08:38:18.835Z,21.60
2023-09-13T08:43:22.983Z,21.50
2023-09-13T08:48:28.869Z,21.40
2023-09-13T08:53:34.829Z,21.30
2023-09-13T08:58:54.523Z,21.30
2023-09-13T09:03:59.789Z,21.20
2023-09-13T09:09:19.016Z,21.30
2023-09-13T09:14:26.303Z,21.30
2023-09-13T09:19:31.966Z,21.50
2023-09-13T09:24:42.500Z,21.30
2023-09-13T09:29:45.950Z,21.30
2023-09-13T09:35:00.719Z,21.40
2023-09-13T09:40:11.798Z,21.80
2023-09-13T09:45:15.708Z,21.80
2023-09-13T09:50:21.086Z,21.50
2023-09-13T09:55:24.778Z,21.40
2023-09-13T10:00:30.481Z,21.40
2023-09-13T10:05:46.084Z,21.60
2023-09-13T10:10:52.760Z,21.80
2023-09-13T10:15:56.394Z,22.30
2023-09-13T10:21:03.287Z,23.40
2023-09-13T10:26:10.690Z,24.10
2023-09-13T10:31:21.544Z,24.70
2023-09-13T10:36:39.187Z,24.40
2023-09-13T10:42:00.198Z,24.20
2023-09-13T10:47:08.724Z,23.70
2023-09-13T10:52:25.833Z,23.20
2023-09-13T10:57:34.894Z,22.10
2023-09-13T11:02:40.069Z,21.70
2023-09-13T11:07:51.364Z,20.90
2023-09-13T11:12:56.690Z,20.50
2023-09-13T11:18:17.290Z,20.50
2023-09-13T11:28:34.517Z,21.40
2023-09-13T11:33:41.860Z,21.90
2023-09-13T11:38:47.336Z,22.60
2023-09-13T11:44:03.273Z,23.30
2023-09-13T11:49:30.347Z,23.70
2023-09-13T12:00:18.762Z,24.50
2023-09-13T12:05:38.461Z,24.10
2023-09-13T12:11:00.175Z,23.90
2023-09-13T12:16:11.389Z,23.60
2023-09-13T12:21:15.682Z,23.20
2023-09-13T12:26:21.150Z,23.00
2023-09-13T12:31:28.544Z,23.30
2023-09-13T12:36:32.250Z,23.20
2023-09-13T12:41:36.963Z,23.10
2023-09-13T12:46:41.583Z,22.50
2023-09-13T12:51:45.267Z,22.20
2023-09-13T12:56:50.144Z,22.50
2023-09-13T13:01:56.918Z,22.60
2023-09-13T13:07:04.483Z,23.20
2023-09-13T13:12:16.957Z,23.90
2023-09-13T13:17:20.740Z,24.00
2023-09-13T13:22:30.010Z,24.00
2023-09-13T13:27:36.010Z,24.40
2023-09-13T13:32:46.958Z,24.70
2023-09-13T13:37:52.600Z,23.90
2023-09-13T13:42:59.625Z,23.60
2023-09-13T13:48:14.545Z,23.70
2023-09-13T13:53:18.283Z,24.00
2023-09-13T13:58:29.676Z,24.30
2023-09-13T14:03:34.357Z,24.30
2023-09-13T14:08:41.040Z,24.20
2023-09-13T14:13:49.358Z,24.00
2023-09-13T14:18:54.999Z,23.60
2023-09-13T14:24:05.675Z,23.10
2023-09-13T14:29:12.421Z,22.90
2023-09-13T14:34:15.870Z,22.60
2023-09-13T14:39:25.186Z,22.40
2023-09-13T14:44:31.117Z,22.20
2023-09-13T14:49:36.582Z,22.10
2023-09-13T14:54:39.967Z,21.80
2023-09-13T14:59:46.390Z,21.70
2023-09-13T15:05:00.762Z,21.60
2023-09-13T15:10:05.216Z,21.60
2023-09-13T15:15:11.784Z,21.50
2023-09-13T15:20:18.349Z,21.30
2023-09-13T15:25:23.894Z,21.30
2023-09-13T15:30:29.041Z,21.10
2023-09-13T15:35:44.308Z,21.00
2023-09-13T15:40:48.356Z,20.90
2023-09-13T15:45:55.167Z,20.70
2023-09-13T15:51:14.124Z,20.60
2023-09-13T15:56:21.649Z,20.60
2023-09-13T16:01:26.990Z,20.60
2023-09-13T16:06:31.776Z,20.60
2023-09-13T16:11:35.914Z,20.60
2023-09-13T16:17:07.408Z,20.70
2023-09-13T16:22:20.218Z,20.60
2023-09-13T16:27:25.157Z,20.70
2023-09-13T16:32:37.437Z,20.70
2023-09-13T16:37:43.521Z,20.80
2023-09-13T16:42:47.972Z,20.70
2023-09-13T16:47:55.261Z,20.70
2023-09-13T16:52:58.723Z,20.30
2023-09-13T16:58:11.383Z,20.20
2023-09-13T17:03:24.526Z,20.10
2023-09-13T17:08:32.434Z,20.20
2023-09-13T17:13:37.520Z,20.20
2023-09-13T17:18:42.479Z,20.20
2023-09-13T17:23:48.342Z,19.90
2023-09-13T17:28:51.850Z,19.60
2023-09-13T17:33:58.944Z,19.30
2023-09-13T17:39:05.113Z,19.00
2023-09-13T17:44:08.747Z,18.70
2023-09-13T17:49:20.725Z,18.60
2023-09-13T17:54:24.152Z,18.50
2023-09-13T17:59:29.504Z,18.50
2023-09-13T18:04:34.538Z,18.40
2023-09-13T18:09:38.911Z,18.40
2023-09-13T18:15:32.365Z,18.30
2023-09-13T18:20:37.944Z,18.40
2023-09-13T18:25:41.404Z,18.40
2023-09-13T18:30:44.907Z,18.40
2023-09-13T18:35:50.030Z,18.40
2023-09-13T18:40:54.684Z,18.30
2023-09-13T18:46:10.028Z,18.30
2023-09-13T18:51:34.220Z,18.20
2023-09-13T18:56:37.727Z,18.20
2023-09-13T19:01:50.071Z,18.00
2023-09-13T19:07:08.393Z,18.00
2023-09-13T19:12:13.970Z,18.00
2023-09-13T19:17:24.011Z,18.00
2023-09-13T19:22:41.030Z,18.00
2023-09-13T19:27:58.590Z,18.00
2023-09-13T19:33:04.641Z,18.00
2023-09-13T19:38:23.682Z,17.90
2023-09-13T19:43:36.268Z,17.80
2023-09-13T19:48:50.080Z,17.60
2023-09-13T19:54:05.330Z,17.40
2023-09-13T19:59:08.766Z,17.20
2023-09-13T20:04:12.192Z,17.10
2023-09-13T20:09:17.281Z,17.00
